Aérodrome :
LOGIN :

S'inscrire | Disclaimer

   EN    FR    IT 

 










Légende :    VFR   VFR Marginal   IFR   IFR Intensif   IFR Très Intensif
Visi : 
Plafond : 
>= 8 km
>= 3000ft
5 à 8 km
1000 à 3000 ft
1500m à 5 km
500 à 1000 ft
800 à 1500m
200 à 500 ft
< 800m
< 200 ft
Symboles :   Orages  Brouillard  Fortes neiges  Fortes précipitations  Vent > 20 kt
SIGMETs :   Divers  Orages  Givrage  Turbulence  Onde Orograph.  Cendres Volcan.






- Altitude de l'aérodrome : 1416 ft
- Code IATA : ZRH


LSZH - Zurich

DERNIER METAR :
  • 232050Z 16008KT CAVOK 13/06 Q1011 NOSIG

METARs EXPIRÉS :
  • 232020Z 17006KT 9999 FEW055 13/06 Q1012 NOSIG
  • 231950Z 19005KT 9999 FEW060 BKN070 14/06 Q1012 NOSIG
  • 231920Z 20005KT 9999 FEW055 BKN075 15/05 Q1012 NOSIG
  • 231850Z 21006KT 9999 FEW055 BKN065 15/05 Q1012 NOSIG
  • 231820Z 21005KT 9999 BKN065 15/05 Q1012 NOSIG
  • 231750Z 23006KT 9999 BKN065 15/06 Q1012 NOSIG

TAF TAF LSZH
Valide du 23 à 21h jusqu'au 25 à 03h UTC


232025Z 2321/2503 19005KT 9999 BKN070 TX14/2415Z TN09/2405Z
TEMPO 2321/2403 CAVOK
PROB40
TEMPO 2406/2410 RA
BECMG 2407/2410 24010KT
TEMPO 2410/2503 SHRA
TEMPO 2410/2416 26015G25KT
PROB40
TEMPO 2412/2415 4000 SHRA SCT030TCU
ATIS : +41 43 816 2295 (DEP) +41 43 816 2294 (ARR)



MET'MAP, la Météo Aéronautique d'un coup d'oeil ! - Copyright ORBIFLY Décembre 2007 - Disclaimer

ORBIFLY MET'MAP TEAM :

Programmation & Développement : Alexandra Zaïnal
Sur une idée originale de : Baudouin d'Aumeries
Soutien technique & logistique : Manuel Goepfert
Assistance : Marc-Olivier Méhu




SOURCES & CREDITS :

   NOAA